Time;durP1;ratioP1;P1;durP2;ratioP2;P2;SDS_P1;SDS_P2;PMS_P1;PMS_P2;Temp;Humidity;BMP_temperature;BMP_pressure;BME280_temperature;BME280_humidity;BME280_pressure;Samples;Min_cycle;Max_cycle;Signal;HPM_P1;HPM_P2
2023/01/04 00:00:21;;;;;;;6.93;2.83;;;6.80;99.90;;;;;;5067123;28;20035;-45
2023/01/04 00:02:46;;;;;;;5.40;2.83;;;6.70;99.90;;;;;;5070478;28;20037;-46
2023/01/04 00:05:12;;;;;;;8.27;2.88;;;6.80;99.90;;;;;;5070964;28;20124;-45
2023/01/04 00:07:37;;;;;;;10.00;2.88;;;6.80;99.90;;;;;;5071256;28;20024;-45
2023/01/04 00:10:03;;;;;;;7.50;3.38;;;6.80;99.90;;;;;;5071203;28;20314;-45
2023/01/04 00:12:29;;;;;;;5.93;3.45;;;6.80;99.90;;;;;;5068178;28;20174;-46
2023/01/04 00:14:54;;;;;;;9.77;2.75;;;6.70;99.90;;;;;;5062345;28;20107;-45
2023/01/04 00:17:20;;;;;;;4.63;2.72;;;6.80;99.90;;;;;;5070744;28;20029;-46
2023/01/04 00:19:45;;;;;;;5.85;2.70;;;6.70;99.90;;;;;;5070647;28;20027;-45
2023/01/04 00:22:11;;;;;;;4.13;2.55;;;6.80;99.90;;;;;;5069999;28;20400;-45
2023/01/04 00:24:36;;;;;;;5.70;2.97;;;6.80;99.90;;;;;;5071074;28;20532;-48
2023/01/04 00:27:02;;;;;;;10.27;2.72;;;6.80;99.90;;;;;;5067156;28;20052;-50
2023/01/04 00:29:27;;;;;;;7.85;2.90;;;6.80;99.90;;;;;;5061722;28;20029;-50
2023/01/04 00:31:53;;;;;;;6.93;2.80;;;6.80;99.90;;;;;;5068502;28;20020;-51
2023/01/04 00:34:18;;;;;;;8.18;2.60;;;6.80;99.90;;;;;;5070874;28;20419;-48
2023/01/04 00:36:45;;;;;;;14.25;2.72;;;6.70;99.90;;;;;;5061631;28;20021;-48
2023/01/04 00:39:14;;;;;;;7.93;2.88;;;6.70;99.90;;;;;;5065075;28;20088;-48
2023/01/04 00:41:48;;;;;;;4.28;2.63;;;6.80;99.90;;;;;;5064542;28;20552;-51
2023/01/04 00:44:15;;;;;;;8.05;2.90;;;6.70;99.90;;;;;;5050218;28;20069;-48
2023/01/04 00:46:41;;;;;;;6.57;2.35;;;6.80;99.90;;;;;;5051414;28;20017;-49
2023/01/04 00:49:09;;;;;;;5.72;2.78;;;6.70;99.90;;;;;;5060331;28;20055;-47
2023/01/04 00:51:37;;;;;;;5.82;2.95;;;6.70;99.90;;;;;;5070045;28;20358;-47
2023/01/04 00:54:04;;;;;;;5.05;2.40;;;6.70;99.90;;;;;;5069523;28;20031;-49
2023/01/04 00:56:31;;;;;;;11.73;2.78;;;6.70;99.90;;;;;;5068894;28;20215;-47
2023/01/04 00:58:58;;;;;;;9.18;3.35;;;6.70;99.90;;;;;;5070233;28;20024;-48
2023/01/04 01:01:26;;;;;;;7.30;2.75;;;6.70;99.90;;;;;;5063569;28;20104;-48
2023/01/04 01:03:53;;;;;;;8.65;2.63;;;6.80;99.90;;;;;;5061584;28;20056;-47
2023/01/04 01:06:19;;;;;;;7.45;2.33;;;6.70;99.90;;;;;;5069999;28;20017;-47
2023/01/04 01:08:45;;;;;;;6.22;2.20;;;6.70;99.90;;;;;;5069875;28;20082;-47
2023/01/04 01:11:11;;;;;;;13.20;3.08;;;6.70;99.90;;;;;;5068503;28;20424;-48
2023/01/04 01:13:37;;;;;;;7.20;2.67;;;6.70;99.90;;;;;;5061102;28;20428;-47
2023/01/04 01:16:05;;;;;;;5.47;2.60;;;6.60;99.90;;;;;;5063272;28;20016;-47
2023/01/04 01:18:31;;;;;;;4.35;2.20;;;6.70;99.90;;;;;;5069472;28;20021;-47
2023/01/04 01:20:57;;;;;;;5.53;2.47;;;6.70;99.90;;;;;;5068292;28;20024;-46
2023/01/04 01:23:22;;;;;;;4.53;2.33;;;6.60;99.90;;;;;;5069195;28;20034;-46
2023/01/04 01:25:48;;;;;;;3.90;2.15;;;6.60;99.90;;;;;;5069443;28;20025;-46
2023/01/04 01:28:13;;;;;;;5.28;2.40;;;6.60;99.90;;;;;;5069481;28;20036;-48
2023/01/04 01:30:43;;;;;;;7.10;2.40;;;6.70;99.90;;;;;;5069171;28;20056;-47
2023/01/04 01:33:09;;;;;;;10.30;2.67;;;6.70;99.90;;;;;;5069156;28;20028;-46
2023/01/04 01:35:35;;;;;;;11.73;2.50;;;6.70;99.90;;;;;;5069495;28;20089;-50
2023/01/04 01:38:01;;;;;;;4.70;2.38;;;6.70;99.90;;;;;;5069244;28;20032;-47
2023/01/04 01:40:27;;;;;;;7.43;2.40;;;6.70;99.90;;;;;;5069179;28;20070;-47
2023/01/04 01:42:52;;;;;;;5.53;2.35;;;6.80;99.90;;;;;;5064923;28;20052;-47
2023/01/04 01:45:23;;;;;;;10.98;4.03;;;6.70;99.90;;;;;;5059936;28;20036;-47
2023/01/04 01:47:50;;;;;;;7.60;2.30;;;6.70;99.90;;;;;;5048879;28;20470;-49
2023/01/04 01:50:27;;;;;;;5.75;2.00;;;6.70;99.90;;;;;;5049122;28;20044;-47
2023/01/04 01:52:55;;;;;;;4.00;1.88;;;6.70;99.90;;;;;;5048574;28;20032;-46
2023/01/04 01:55:22;;;;;;;5.72;2.25;;;6.80;99.90;;;;;;5048918;28;20017;-47
2023/01/04 01:57:49;;;;;;;5.63;2.15;;;6.80;99.90;;;;;;5048785;28;20083;-47
2023/01/04 02:00:16;;;;;;;7.28;2.38;;;6.80;99.90;;;;;;5048523;28;20059;-47
2023/01/04 02:02:50;;;;;;;11.13;3.35;;;6.80;99.90;;;;;;5048601;28;20029;-47
2023/01/04 02:05:18;;;;;;;6.07;2.83;;;6.90;99.90;;;;;;5047370;28;20025;-47
2023/01/04 02:07:45;;;;;;;9.50;3.10;;;6.90;99.90;;;;;;5047441;28;20553;-48
2023/01/04 02:10:11;;;;;;;6.65;2.42;;;7.00;99.90;;;;;;5048682;28;20039;-47
2023/01/04 02:12:36;;;;;;;3.53;2.40;;;6.90;99.90;;;;;;5048151;28;20524;-47
2023/01/04 02:15:02;;;;;;;5.28;3.05;;;6.90;99.90;;;;;;5048326;28;20021;-46
2023/01/04 02:17:53;;;;;;;8.35;2.83;;;6.90;99.90;;;;;;5057553;28;20021;-46
2023/01/04 02:20:43;;;;;;;6.72;3.53;;;6.90;99.90;;;;;;5068624;28;20020;-48
2023/01/04 02:23:11;;;;;;;11.63;4.80;;;6.90;99.90;;;;;;5068417;28;20073;-46
2023/01/04 02:25:55;;;;;;;9.38;2.58;;;6.80;99.90;;;;;;5068635;28;20020;-47
2023/01/04 02:28:38;;;;;;;5.38;2.72;;;6.80;99.90;;;;;;5060959;28;20064;-47
2023/01/04 02:31:32;;;;;;;8.32;2.55;;;6.80;99.90;;;;;;5056129;28;20020;-47
2023/01/04 02:34:07;;;;;;;7.32;2.60;;;6.80;99.90;;;;;;5068178;28;20021;-47
2023/01/04 02:36:42;;;;;;;8.15;2.47;;;6.80;99.90;;;;;;5067168;28;20393;-47
2023/01/04 02:39:32;;;;;;;4.53;2.17;;;6.90;99.90;;;;;;5068376;28;20020;-47
2023/01/04 02:42:06;;;;;;;4.57;1.90;;;6.80;99.90;;;;;;5068040;28;20028;-46
2023/01/04 02:44:52;;;;;;;5.68;2.00;;;6.80;99.90;;;;;;5068766;28;20032;-46
2023/01/04 02:50:39;;;;;;;6.25;2.30;;;6.80;99.90;;;;;;5068976;28;20051;-46
2023/01/04 02:53:15;;;;;;;5.32;2.40;;;6.80;99.90;;;;;;5068018;28;20115;-48
2023/01/04 02:55:46;;;;;;;7.03;2.30;;;6.90;99.90;;;;;;5068452;28;20020;-47
2023/01/04 02:58:35;;;;;;;3.65;1.88;;;6.90;99.90;;;;;;5061689;28;20066;-48
2023/01/04 03:07:23;;;;;;;4.00;2.13;;;6.80;99.90;;;;;;5068364;28;20138;-50
2023/01/04 03:09:51;;;;;;;3.80;1.95;;;6.90;99.90;;;;;;5067776;28;20493;-48
2023/01/04 03:12:32;;;;;;;4.57;2.22;;;6.80;99.90;;;;;;5067676;28;20033;-50
2023/01/04 03:15:00;;;;;;;5.13;2.58;;;6.80;99.90;;;;;;5068329;28;20090;-48
2023/01/04 03:17:34;;;;;;;8.45;2.80;;;6.90;99.90;;;;;;5068242;28;20082;-46
2023/01/04 03:20:01;;;;;;;8.30;2.75;;;6.90;99.90;;;;;;5066612;28;20029;-47
2023/01/04 03:36:57;;;;;;;10.52;2.60;;;7.10;99.90;;;;;;5031548;28;20088;-46
2023/01/04 03:48:52;;;;;;;4.88;2.88;;;7.40;99.90;;;;;;5031749;28;20548;-48
2023/01/04 03:51:28;;;;;;;5.78;2.42;;;7.40;99.90;;;;;;5031261;28;20025;-47
2023/01/04 03:54:06;;;;;;;7.10;2.63;;;7.50;99.90;;;;;;5034370;28;20033;-46
2023/01/04 03:56:35;;;;;;;9.55;3.08;;;7.50;99.90;;;;;;5042949;28;20048;-47
2023/01/04 03:59:01;;;;;;;5.32;2.58;;;7.50;99.90;;;;;;5038841;28;20083;-47
2023/01/04 04:01:27;;;;;;;4.97;2.35;;;7.50;99.90;;;;;;5041865;28;20465;-47
2023/01/04 04:09:22;;;;;;;8.45;2.80;;;7.60;99.90;;;;;;5040893;28;20032;-47
2023/01/04 04:11:48;;;;;;;6.85;2.40;;;7.60;99.90;;;;;;5039145;28;20029;-47
2023/01/04 04:14:14;;;;;;;6.13;2.55;;;7.60;99.90;;;;;;5041501;28;20021;-47
2023/01/04 04:16:39;;;;;;;8.07;2.35;;;7.70;99.90;;;;;;5034740;28;20033;-47
2023/01/04 04:19:05;;;;;;;5.25;2.53;;;7.70;99.90;;;;;;5030733;28;20036;-49
2023/01/04 04:21:30;;;;;;;3.63;2.60;;;7.80;99.90;;;;;;5030651;28;20037;-49
2023/01/04 04:23:56;;;;;;;10.00;2.85;;;7.70;99.90;;;;;;5030172;28;20119;-48
2023/01/04 04:26:22;;;;;;;5.90;2.28;;;7.70;99.90;;;;;;5050600;28;20033;-46
2023/01/04 04:28:48;;;;;;;6.07;2.63;;;7.70;99.90;;;;;;5047364;28;20076;-47
2023/01/04 04:31:14;;;;;;;9.00;2.70;;;7.70;99.90;;;;;;5039621;28;20509;-47
2023/01/04 04:33:39;;;;;;;5.57;2.40;;;7.80;99.90;;;;;;5039792;28;20024;-48
2023/01/04 04:36:06;;;;;;;8.52;2.58;;;7.70;99.90;;;;;;5043749;28;20148;-47
2023/01/04 04:38:31;;;;;;;5.15;2.28;;;7.60;99.90;;;;;;5048854;28;20033;-46
2023/01/04 04:43:41;;;;;;;8.32;2.60;;;7.50;99.90;;;;;;5048765;28;20063;-47
2023/01/04 04:46:07;;;;;;;7.88;2.85;;;7.50;99.90;;;;;;5050174;28;20060;-49
2023/01/04 04:48:32;;;;;;;7.05;2.47;;;7.50;99.90;;;;;;5050062;28;20036;-46
2023/01/04 04:50:58;;;;;;;7.22;2.85;;;7.40;99.90;;;;;;5048356;28;20083;-47
2023/01/04 04:53:24;;;;;;;11.48;2.70;;;7.40;99.90;;;;;;5047184;28;20029;-51
2023/01/04 04:55:51;;;;;;;10.57;3.05;;;7.30;99.90;;;;;;5049868;28;20410;-49
2023/01/04 04:58:16;;;;;;;7.00;2.92;;;7.30;99.90;;;;;;5049547;28;20363;-48
2023/01/04 05:00:42;;;;;;;6.97;3.03;;;7.30;99.90;;;;;;5049900;28;20070;-47
2023/01/04 05:03:08;;;;;;;6.82;2.85;;;7.20;99.90;;;;;;5049192;28;20690;-50
2023/01/04 05:05:33;;;;;;;6.75;2.60;;;7.20;99.90;;;;;;5049484;28;20032;-47
2023/01/04 05:07:58;;;;;;;6.20;2.80;;;7.20;99.90;;;;;;5049346;28;20208;-49
2023/01/04 05:10:24;;;;;;;9.43;3.42;;;7.10;99.90;;;;;;5048032;28;20036;-48
2023/01/04 05:12:58;;;;;;;15.02;3.55;;;7.00;99.90;;;;;;5048719;28;20037;-48
2023/01/04 05:15:34;;;;;;;6.50;2.83;;;7.00;99.90;;;;;;5049247;28;20025;-49
2023/01/04 05:18:00;;;;;;;8.13;3.33;;;7.00;99.90;;;;;;5049288;28;20068;-49
2023/01/04 05:20:26;;;;;;;11.00;3.95;;;7.00;99.90;;;;;;5047775;28;20518;-48
2023/01/04 05:22:52;;;;;;;9.70;3.70;;;7.00;99.90;;;;;;5048702;28;20025;-49
2023/01/04 05:25:18;;;;;;;8.35;3.15;;;7.00;99.90;;;;;;5049151;28;20027;-49
2023/01/04 05:27:44;;;;;;;12.25;3.58;;;7.00;99.90;;;;;;5049120;28;20025;-48
2023/01/04 05:32:56;;;;;;;13.30;3.88;;;7.00;99.90;;;;;;5048726;28;20067;-48
2023/01/04 05:35:21;;;;;;;8.32;3.97;;;7.00;99.90;;;;;;5049413;28;20343;-48
2023/01/04 05:37:47;;;;;;;8.48;3.50;;;7.10;99.90;;;;;;5048663;28;20684;-48
2023/01/04 05:40:12;;;;;;;10.40;3.83;;;7.10;99.90;;;;;;5049094;28;20025;-50
2023/01/04 05:42:38;;;;;;;6.93;3.75;;;7.00;99.90;;;;;;5048489;28;20021;-47
2023/01/04 05:45:04;;;;;;;12.23;3.97;;;7.10;99.90;;;;;;5046969;28;20025;-48
2023/01/04 05:47:29;;;;;;;9.73;3.67;;;7.00;99.90;;;;;;5048715;28;20090;-48
2023/01/04 05:49:55;;;;;;;15.75;4.55;;;7.10;99.90;;;;;;5048531;28;20020;-47
2023/01/04 05:52:21;;;;;;;13.68;4.30;;;7.10;99.90;;;;;;5048096;28;20569;-48
2023/01/04 05:54:47;;;;;;;12.82;4.07;;;7.10;99.90;;;;;;5047857;28;20486;-50
2023/01/04 05:57:12;;;;;;;12.52;4.65;;;7.10;99.90;;;;;;5048485;28;20032;-47
2023/01/04 05:59:38;;;;;;;8.60;4.38;;;7.10;99.90;;;;;;5048499;28;20051;-48
2023/01/04 06:02:04;;;;;;;10.68;4.45;;;7.10;99.90;;;;;;5047837;28;20466;-51
2023/01/04 06:04:30;;;;;;;9.90;3.85;;;7.10;99.90;;;;;;5048355;28;20044;-49
2023/01/04 06:06:56;;;;;;;6.88;4.15;;;7.10;99.90;;;;;;5048451;28;20029;-49
2023/01/04 06:09:23;;;;;;;14.18;5.15;;;7.10;99.90;;;;;;5048717;28;20068;-50
2023/01/04 06:11:49;;;;;;;11.18;4.38;;;7.10;99.90;;;;;;5047729;28;20043;-49
2023/01/04 06:14:15;;;;;;;7.38;4.22;;;7.10;99.90;;;;;;5048121;28;20051;-48
2023/01/04 06:16:41;;;;;;;9.40;3.85;;;7.10;99.90;;;;;;5048489;28;20025;-48
2023/01/04 06:19:06;;;;;;;11.15;4.82;;;7.10;99.90;;;;;;5048000;28;20033;-48
2023/01/04 06:21:32;;;;;;;8.40;3.83;;;7.10;99.90;;;;;;5048263;28;20033;-48
2023/01/04 06:23:58;;;;;;;7.45;3.42;;;7.10;99.90;;;;;;5047925;28;20025;-50
2023/01/04 06:26:24;;;;;;;8.00;3.72;;;7.10;99.90;;;;;;5048755;28;20031;-50
2023/01/04 06:28:49;;;;;;;12.15;3.85;;;7.10;99.90;;;;;;5048353;28;20289;-50
2023/01/04 06:31:15;;;;;;;9.02;4.30;;;7.20;99.90;;;;;;5048571;28;20128;-48
2023/01/04 06:33:40;;;;;;;7.30;3.95;;;7.20;99.90;;;;;;5047567;28;20278;-51
2023/01/04 06:36:06;;;;;;;8.65;3.80;;;7.20;99.90;;;;;;5047988;28;20036;-49
2023/01/04 06:38:33;;;;;;;9.10;4.03;;;7.20;99.90;;;;;;5048295;28;20025;-50
2023/01/04 06:40:59;;;;;;;10.15;4.25;;;7.20;99.90;;;;;;5046703;28;20036;-50
2023/01/04 06:43:25;;;;;;;11.98;4.47;;;7.20;99.90;;;;;;5047715;28;20028;-50
2023/01/04 06:45:51;;;;;;;10.80;4.53;;;7.20;99.90;;;;;;5043897;28;20135;-48
2023/01/04 06:48:16;;;;;;;10.35;4.15;;;7.20;99.90;;;;;;5043329;28;20111;-48
2023/01/04 06:50:42;;;;;;;8.70;4.30;;;7.30;99.90;;;;;;5042051;28;20032;-48
2023/01/04 06:53:08;;;;;;;6.43;4.35;;;7.30;99.90;;;;;;5046325;28;20027;-50
2023/01/04 06:55:34;;;;;;;9.35;4.00;;;7.20;99.90;;;;;;5046730;28;20563;-49
2023/01/04 06:57:59;;;;;;;8.13;4.30;;;7.20;99.90;;;;;;5045745;28;20030;-49
2023/01/04 07:00:26;;;;;;;7.05;3.97;;;7.30;99.90;;;;;;5044231;28;20047;-50
2023/01/04 07:02:51;;;;;;;7.43;4.43;;;7.30;99.90;;;;;;5047065;28;20026;-48
2023/01/04 07:05:17;;;;;;;14.38;4.68;;;7.40;99.90;;;;;;5046379;28;20017;-48
2023/01/04 07:07:43;;;;;;;10.13;5.60;;;7.30;99.90;;;;;;5049609;28;20025;-48
2023/01/04 07:10:09;;;;;;;11.80;4.75;;;7.40;99.90;;;;;;5051614;28;20390;-49
2023/01/04 07:12:36;;;;;;;9.20;4.70;;;7.40;99.90;;;;;;5050944;28;20040;-50
2023/01/04 07:15:02;;;;;;;8.80;4.97;;;7.40;99.90;;;;;;5051301;28;20025;-47
2023/01/04 07:17:28;;;;;;;8.63;4.53;;;7.40;99.90;;;;;;5049774;28;20075;-48
2023/01/04 07:19:54;;;;;;;8.70;4.35;;;7.50;99.90;;;;;;5049801;28;20025;-50
2023/01/04 07:22:19;;;;;;;9.80;5.20;;;7.50;99.90;;;;;;5050727;28;20025;-48
2023/01/04 07:24:45;;;;;;;10.98;4.30;;;7.60;99.90;;;;;;5051193;28;20017;-48
2023/01/04 07:27:10;;;;;;;7.72;4.07;;;7.60;99.90;;;;;;5050798;28;20403;-48
2023/01/04 07:29:36;;;;;;;6.35;4.53;;;7.70;99.90;;;;;;5050971;28;20084;-47
2023/01/04 07:32:03;;;;;;;9.70;4.65;;;7.70;99.90;;;;;;5050488;28;20086;-47
2023/01/04 07:34:28;;;;;;;8.30;4.40;;;7.70;99.90;;;;;;5050820;28;20028;-47
2023/01/04 07:36:54;;;;;;;6.55;4.07;;;7.70;99.90;;;;;;5050644;28;20048;-48
2023/01/04 07:39:20;;;;;;;4.90;3.78;;;7.80;99.90;;;;;;5050670;28;20086;-47
2023/01/04 07:41:46;;;;;;;7.90;4.20;;;7.80;99.90;;;;;;5050230;28;20033;-48
2023/01/04 07:44:12;;;;;;;6.03;3.45;;;7.90;99.90;;;;;;5050462;28;20150;-47
2023/01/04 07:46:39;;;;;;;5.25;3.72;;;7.90;99.90;;;;;;5050646;28;20024;-48
2023/01/04 07:49:05;;;;;;;7.72;3.92;;;7.90;99.90;;;;;;5050520;28;20025;-48
2023/01/04 07:51:31;;;;;;;6.90;3.33;;;8.00;99.90;;;;;;5050638;28;20066;-47
2023/01/04 07:53:57;;;;;;;5.15;3.33;;;8.10;99.90;;;;;;5050076;28;20018;-48
2023/01/04 07:56:23;;;;;;;5.97;3.00;;;8.10;99.90;;;;;;5050396;28;20035;-47
2023/01/04 07:58:49;;;;;;;5.38;3.22;;;8.10;99.90;;;;;;5051607;28;20026;-49
2023/01/04 08:01:16;;;;;;;6.70;3.10;;;8.20;99.90;;;;;;5064497;28;20489;-47
2023/01/04 08:03:44;;;;;;;5.38;3.28;;;8.30;99.90;;;;;;5068245;28;20024;-49
2023/01/04 08:06:12;;;;;;;6.97;3.22;;;8.30;99.90;;;;;;5070365;28;20039;-47
2023/01/04 08:08:38;;;;;;;5.60;2.97;;;8.30;99.90;;;;;;5070470;28;20046;-47
2023/01/04 08:11:15;;;;;;;6.22;3.30;;;8.40;99.90;;;;;;5070213;28;20032;-47
2023/01/04 08:13:41;;;;;;;6.15;2.85;;;8.40;99.90;;;;;;5069712;28;20061;-48
2023/01/04 08:16:16;;;;;;;4.22;3.10;;;8.50;99.90;;;;;;5070310;28;20488;-46
2023/01/04 08:18:42;;;;;;;4.47;2.95;;;8.60;99.90;;;;;;5069365;28;20025;-50
2023/01/04 08:21:08;;;;;;;6.68;3.53;;;8.60;99.90;;;;;;5068951;28;20543;-47
2023/01/04 08:23:35;;;;;;;6.72;2.70;;;8.60;99.90;;;;;;5069830;28;20044;-49
2023/01/04 08:26:10;;;;;;;5.97;3.45;;;8.60;99.90;;;;;;5068786;28;20055;-47
2023/01/04 08:28:35;;;;;;;5.28;2.80;;;8.60;99.90;;;;;;5070095;28;20032;-48
2023/01/04 08:31:10;;;;;;;5.50;3.17;;;8.70;99.90;;;;;;5069605;28;20035;-48
2023/01/04 08:33:37;;;;;;;5.70;2.75;;;8.70;99.90;;;;;;5069195;28;20128;-46
2023/01/04 08:36:18;;;;;;;5.15;3.05;;;8.80;99.90;;;;;;5069603;28;20086;-47
2023/01/04 08:38:44;;;;;;;4.28;2.38;;;8.70;99.90;;;;;;5068118;28;20050;-46
2023/01/04 08:41:10;;;;;;;4.65;2.45;;;8.80;99.90;;;;;;5068403;28;20032;-46
2023/01/04 08:43:35;;;;;;;5.55;2.95;;;8.80;99.90;;;;;;5069681;28;20033;-46
2023/01/04 08:46:03;;;;;;;2.40;2.20;;;8.80;99.90;;;;;;5069814;28;20374;-47
2023/01/04 08:48:28;;;;;;;23.42;13.57;;;8.90;99.90;;;;;;5069446;28;20286;-49
2023/01/04 08:50:56;;;;;;;5.28;2.90;;;8.90;99.90;;;;;;5068146;28;20340;-48
2023/01/04 08:53:22;;;;;;;5.18;2.88;;;8.90;99.90;;;;;;5068740;28;20021;-47
2023/01/04 08:55:49;;;;;;;5.28;3.03;;;8.90;99.90;;;;;;5063292;28;20025;-47
2023/01/04 08:58:15;;;;;;;4.57;3.00;;;8.90;99.90;;;;;;5040039;28;20026;-50
2023/01/04 09:00:40;;;;;;;5.43;2.40;;;8.90;99.90;;;;;;5052201;28;20017;-47
2023/01/04 09:03:06;;;;;;;3.42;2.42;;;9.00;99.90;;;;;;5041387;28;20025;-50
2023/01/04 09:05:31;;;;;;;3.97;2.72;;;9.00;99.90;;;;;;5047498;28;20025;-49
2023/01/04 09:07:58;;;;;;;4.47;2.85;;;9.10;99.90;;;;;;5050336;28;20052;-46
2023/01/04 09:10:24;;;;;;;4.43;2.58;;;9.00;99.90;;;;;;5043632;28;20028;-47
2023/01/04 09:12:50;;;;;;;3.63;2.35;;;9.00;99.90;;;;;;5047110;28;20036;-49
2023/01/04 09:15:17;;;;;;;4.03;2.28;;;9.00;99.90;;;;;;5044804;28;20025;-49
2023/01/04 09:17:43;;;;;;;5.20;2.80;;;9.10;99.90;;;;;;5049567;28;20385;-46
2023/01/04 09:20:09;;;;;;;4.15;2.50;;;9.10;99.90;;;;;;5049300;28;20037;-46
2023/01/04 09:22:34;;;;;;;4.43;2.42;;;9.10;99.90;;;;;;5049234;28;20028;-49
2023/01/04 09:25:00;;;;;;;3.70;2.67;;;9.20;99.90;;;;;;5049280;28;20405;-50
2023/01/04 09:27:26;;;;;;;5.55;2.80;;;9.10;99.90;;;;;;5047926;28;20079;-48
2023/01/04 09:29:52;;;;;;;6.47;2.80;;;9.10;99.90;;;;;;5047065;28;20098;-48
2023/01/04 09:32:17;;;;;;;5.28;2.70;;;9.10;99.90;;;;;;5049197;28;20064;-50
2023/01/04 09:34:44;;;;;;;6.15;2.88;;;9.20;99.90;;;;;;5049636;28;20052;-49
2023/01/04 09:37:09;;;;;;;4.35;2.63;;;9.20;99.90;;;;;;5047824;28;20025;-47
2023/01/04 09:39:35;;;;;;;5.70;2.83;;;9.10;99.90;;;;;;5047376;28;20086;-50
2023/01/04 09:42:09;;;;;;;4.50;2.72;;;9.10;99.90;;;;;;5048624;28;20428;-53
2023/01/04 09:44:40;;;;;;;5.03;2.95;;;9.00;99.90;;;;;;5048960;28;20115;-47
2023/01/04 09:47:31;;;;;;;6.72;3.13;;;9.00;99.90;;;;;;5047863;28;20460;-47
2023/01/04 09:50:19;;;;;;;5.00;2.90;;;9.00;99.90;;;;;;5040662;28;20041;-47
2023/01/04 09:53:10;;;;;;;4.70;2.95;;;8.90;99.90;;;;;;5047680;28;20037;-49
2023/01/04 09:55:51;;;;;;;6.07;2.60;;;8.70;99.90;;;;;;5047601;28;20027;-47
2023/01/04 09:58:30;;;;;;;4.97;2.78;;;8.70;99.90;;;;;;5048830;28;20040;-50
2023/01/04 10:01:09;;;;;;;4.38;3.05;;;8.60;99.90;;;;;;5047483;28;20057;-48
2023/01/04 10:03:37;;;;;;;3.95;2.40;;;8.50;99.90;;;;;;5048018;28;20060;-50
2023/01/04 10:06:05;;;;;;;7.35;3.17;;;8.60;99.90;;;;;;5049038;28;20032;-50
2023/01/04 10:08:31;;;;;;;5.70;2.78;;;8.50;99.90;;;;;;5049078;28;20025;-49
2023/01/04 10:11:22;;;;;;;3.60;2.38;;;8.60;99.90;;;;;;5048341;28;20040;-50
2023/01/04 10:13:59;;;;;;;4.25;3.08;;;8.50;99.90;;;;;;5046426;28;20040;-49
2023/01/04 10:16:52;;;;;;;3.30;2.55;;;8.50;99.90;;;;;;5027096;28;20026;-49
2023/01/04 10:19:30;;;;;;;2.38;2.13;;;8.60;99.90;;;;;;5066874;28;20036;-47
2023/01/04 10:22:00;;;;;;;4.80;2.15;;;8.60;99.90;;;;;;5066165;28;20025;-48
2023/01/04 10:24:32;;;;;;;4.55;2.28;;;8.70;99.90;;;;;;5068912;28;20024;-50
2023/01/04 10:27:25;;;;;;;3.78;2.50;;;8.80;99.90;;;;;;5067024;28;20580;-50
2023/01/04 10:30:18;;;;;;;17.33;9.93;;;8.80;99.90;;;;;;5037061;28;20033;-50
2023/01/04 10:32:48;;;;;;;3.35;2.50;;;8.90;99.90;;;;;;5068985;28;20029;-47
2023/01/04 10:35:22;;;;;;;3.15;2.40;;;8.90;99.90;;;;;;5048863;28;20022;-48
2023/01/04 10:38:12;;;;;;;3.65;2.33;;;9.00;99.90;;;;;;5028819;28;20136;-48
2023/01/04 10:40:39;;;;;;;4.28;2.58;;;9.00;99.90;;;;;;5022021;28;20103;-50
2023/01/04 10:43:26;;;;;;;3.92;2.67;;;9.10;99.90;;;;;;5031184;28;20036;-47
2023/01/04 10:46:05;;;;;;;3.60;2.10;;;9.00;99.90;;;;;;5032590;28;20026;-49
2023/01/04 10:48:46;;;;;;;3.38;2.35;;;9.10;99.90;;;;;;5032605;28;20029;-47
2023/01/04 10:51:56;;;;;;;3.05;2.30;;;9.10;99.90;;;;;;5032606;28;20387;-50
2023/01/04 10:54:46;;;;;;;6.05;2.47;;;9.10;99.90;;;;;;5031359;28;20420;-50
2023/01/04 10:57:22;;;;;;;3.97;2.20;;;9.10;99.90;;;;;;5031379;28;20494;-48
2023/01/04 11:00:07;;;;;;;3.88;2.35;;;9.10;99.90;;;;;;5030529;28;20550;-49
2023/01/04 11:02:46;;;;;;;3.28;2.13;;;9.20;99.90;;;;;;5030649;28;20029;-47
2023/01/04 11:05:42;;;;;;;5.20;2.40;;;9.30;99.90;;;;;;5031413;28;20125;-48
2023/01/04 11:08:18;;;;;;;4.53;2.00;;;9.30;99.90;;;;;;5031101;28;20029;-50
2023/01/04 11:10:59;;;;;;;6.88;2.20;;;9.40;99.90;;;;;;5031850;28;20366;-47
2023/01/04 11:13:25;;;;;;;3.80;2.38;;;9.40;99.90;;;;;;5037561;28;20108;-48
2023/01/04 11:15:51;;;;;;;3.88;2.40;;;9.30;99.90;;;;;;5048473;28;20104;-47
2023/01/04 11:18:17;;;;;;;2.75;2.47;;;9.30;99.90;;;;;;5050681;28;20634;-47
2023/01/04 11:20:43;;;;;;;4.20;2.42;;;9.30;99.90;;;;;;5050703;28;20029;-47
2023/01/04 11:23:19;;;;;;;4.78;3.05;;;9.30;99.90;;;;;;5048592;28;20108;-48
2023/01/04 11:26:14;;;;;;;2.65;2.45;;;9.30;99.90;;;;;;5050725;28;20029;-49
2023/01/04 11:28:43;;;;;;;4.22;2.83;;;9.30;99.90;;;;;;5050326;28;20408;-50
2023/01/04 11:31:11;;;;;;;6.18;2.72;;;9.30;99.90;;;;;;5050772;28;20036;-47
2023/01/04 11:33:52;;;;;;;2.45;2.25;;;9.20;99.90;;;;;;5049974;28;20029;-48
2023/01/04 11:36:44;;;;;;;5.32;2.38;;;9.20;99.90;;;;;;5050625;28;20029;-48
2023/01/04 11:39:22;;;;;;;4.25;2.53;;;9.20;99.90;;;;;;5049781;28;20138;-48
2023/01/04 11:41:55;;;;;;;3.28;2.72;;;9.20;99.90;;;;;;5049771;28;20056;-48
2023/01/04 11:44:22;;;;;;;5.20;2.90;;;9.10;99.90;;;;;;5051679;28;20021;-49
2023/01/04 11:47:13;;;;;;;4.00;2.45;;;9.10;99.90;;;;;;5051248;28;20049;-51
2023/01/04 11:49:39;;;;;;;4.68;2.55;;;9.00;99.90;;;;;;5051695;28;20116;-50
2023/01/04 11:52:07;;;;;;;5.57;2.83;;;9.00;99.90;;;;;;5048625;28;20606;-48
2023/01/04 11:54:33;;;;;;;3.10;2.78;;;9.00;99.90;;;;;;5051208;28;20416;-50
2023/01/04 11:57:09;;;;;;;23.75;10.48;;;9.00;99.90;;;;;;5050760;28;20017;-49
2023/01/04 11:59:35;;;;;;;6.30;3.20;;;9.00;99.90;;;;;;5052183;28;20028;-47
2023/01/04 12:02:19;;;;;;;5.63;3.40;;;9.00;99.90;;;;;;5050926;28;20025;-50
2023/01/04 12:04:45;;;;;;;5.93;3.92;;;9.00;99.90;;;;;;5051803;28;20025;-48
2023/01/04 12:07:27;;;;;;;5.53;3.50;;;9.00;99.90;;;;;;5051941;28;20104;-51
2023/01/04 12:09:53;;;;;;;5.65;2.75;;;9.00;99.90;;;;;;5051784;28;20020;-48
2023/01/04 12:12:20;;;;;;;4.85;3.10;;;9.00;99.90;;;;;;5051389;28;20113;-49
2023/01/04 12:14:49;;;;;;;8.38;3.00;;;9.00;99.90;;;;;;5051935;28;20426;-51
2023/01/04 12:17:28;;;;;;;5.93;2.33;;;9.00;99.90;;;;;;5050308;28;20070;-48
2023/01/04 12:19:56;;;;;;;4.63;2.97;;;9.10;99.90;;;;;;5051423;28;20104;-48
2023/01/04 12:22:38;;;;;;;3.60;2.50;;;9.10;99.90;;;;;;5049984;28;20024;-48
2023/01/04 12:25:20;;;;;;;3.30;2.90;;;9.10;99.90;;;;;;5049239;28;20458;-50
2023/01/04 12:27:50;;;;;;;3.22;2.47;;;9.10;99.90;;;;;;5048921;28;20028;-50
2023/01/04 12:30:43;;;;;;;3.25;2.70;;;9.10;99.90;;;;;;5049071;28;20124;-48
2023/01/04 12:33:30;;;;;;;3.20;2.50;;;9.20;99.90;;;;;;5048542;28;20592;-49
2023/01/04 12:36:13;;;;;;;3.45;2.25;;;9.20;99.90;;;;;;5050347;28;20280;-49
2023/01/04 12:38:51;;;;;;;2.40;1.95;;;9.20;99.90;;;;;;5050506;28;20071;-47
2023/01/04 12:41:17;;;;;;;2.47;1.90;;;9.20;99.90;;;;;;5050291;28;20060;-50
2023/01/04 12:43:46;;;;;;;5.28;2.20;;;9.30;99.90;;;;;;5049713;28;20028;-48
2023/01/04 12:49:28;;;;;;;2.42;2.10;;;9.20;99.90;;;;;;5049785;28;20086;-49
2023/01/04 12:52:09;;;;;;;2.88;2.10;;;9.20;99.90;;;;;;5049498;28;20028;-48
2023/01/04 12:54:49;;;;;;;;;;;9.20;99.90;;;;;;5050238;28;20032;-47
2023/01/04 12:57:17;;;;;;;2.63;1.88;;;9.20;99.90;;;;;;5049800;28;19909;-49
2023/01/04 12:59:59;;;;;;;2.45;1.95;;;9.20;99.90;;;;;;5048455;28;20024;-47
2023/01/04 13:02:30;;;;;;;3.13;2.03;;;9.20;99.90;;;;;;5049262;28;20029;-49
2023/01/04 13:04:57;;;;;;;;;;;9.20;99.90;;;;;;5049522;28;20111;-48
2023/01/04 13:07:29;;;;;;;2.72;2.38;;;9.20;99.90;;;;;;5049591;28;19904;-50
2023/01/04 13:10:01;;;;;;;3.33;2.00;;;9.20;99.90;;;;;;5050104;28;20258;-48
2023/01/04 13:12:37;;;;;;;2.00;1.58;;;9.30;99.90;;;;;;5048866;28;20549;-48
2023/01/04 13:15:11;;;;;;;3.85;1.83;;;9.30;99.90;;;;;;5047983;28;20160;-49
2023/01/04 13:17:38;;;;;;;21.88;13.98;;;9.30;99.90;;;;;;5049582;28;20029;-48
2023/01/04 13:20:16;;;;;;;3.78;1.75;;;9.30;99.90;;;;;;5049116;28;20017;-48
2023/01/04 13:22:55;;;;;;;2.53;1.67;;;9.40;99.90;;;;;;5049009;28;20013;-50
2023/01/04 13:25:23;;;;;;;3.05;2.15;;;9.40;99.90;;;;;;5049250;28;20044;-50
2023/01/04 13:28:00;;;;;;;2.55;1.38;;;9.40;99.90;;;;;;5048764;28;20079;-50
2023/01/04 13:30:38;;;;;;;6.20;1.50;;;9.40;99.90;;;;;;5049789;28;20074;-51
2023/01/04 13:33:17;;;;;;;2.60;1.70;;;9.50;99.90;;;;;;5049486;28;20489;-48
2023/01/04 13:35:43;;;;;;;1.88;1.30;;;9.60;99.90;;;;;;5049939;28;20033;-47
2023/01/04 13:38:15;;;;;;;1.35;1.17;;;9.50;99.90;;;;;;5049076;28;20025;-48
2023/01/04 13:40:45;;;;;;;2.25;1.20;;;9.60;99.90;;;;;;5033650;28;20037;-46
2023/01/04 13:43:14;;;;;;;1.75;1.33;;;9.60;99.90;;;;;;5046595;28;20033;-47
2023/01/04 13:46:00;;;;;;;1.77;1.67;;;9.60;99.90;;;;;;5050431;28;20025;-49
2023/01/04 13:48:29;;;;;;;2.65;1.45;;;9.70;99.90;;;;;;5048418;28;20036;-49
2023/01/04 13:51:13;;;;;;;1.45;1.08;;;9.60;99.90;;;;;;5038341;28;20021;-47
2023/01/04 13:53:39;;;;;;;1.80;1.25;;;9.70;99.90;;;;;;5037291;28;20490;-48
2023/01/04 13:56:16;;;;;;;4.28;1.60;;;9.70;99.90;;;;;;5046212;28;20074;-47
2023/01/04 13:58:42;;;;;;;1.40;1.30;;;9.70;99.90;;;;;;5039812;28;20482;-50